sensor_id;sensor_type;location;lat;lon;timestamp;temperature;humidity
7427;DHT22;3755;59.316;18.092;2023-07-29T00:00:08;13.80;99.90
7427;DHT22;3755;59.316;18.092;2023-07-29T00:02:36;13.80;99.90
7427;DHT22;3755;59.316;18.092;2023-07-29T00:05:04;13.80;99.90
7427;DHT22;3755;59.316;18.092;2023-07-29T00:07:31;13.80;99.90
7427;DHT22;3755;59.316;18.092;2023-07-29T00:09:58;13.80;99.90
7427;DHT22;3755;59.316;18.092;2023-07-29T00:12:26;13.80;99.90
7427;DHT22;3755;59.316;18.092;2023-07-29T00:14:54;13.70;99.90
7427;DHT22;3755;59.316;18.092;2023-07-29T00:17:21;13.70;99.90
7427;DHT22;3755;59.316;18.092;2023-07-29T00:19:48;13.70;99.90
7427;DHT22;3755;59.316;18.092;2023-07-29T00:22:16;13.70;99.90
7427;DHT22;3755;59.316;18.092;2023-07-29T00:24:43;13.60;99.90
7427;DHT22;3755;59.316;18.092;2023-07-29T00:27:10;13.70;99.90
7427;DHT22;3755;59.316;18.092;2023-07-29T00:29:39;13.60;99.90
7427;DHT22;3755;59.316;18.092;2023-07-29T00:32:06;13.60;99.90
7427;DHT22;3755;59.316;18.092;2023-07-29T00:34:33;13.60;99.90
7427;DHT22;3755;59.316;18.092;2023-07-29T00:37:00;13.60;99.90
7427;DHT22;3755;59.316;18.092;2023-07-29T00:39:28;13.60;99.90
7427;DHT22;3755;59.316;18.092;2023-07-29T00:41:55;13.50;99.90
7427;DHT22;3755;59.316;18.092;2023-07-29T00:44:22;13.50;99.90
7427;DHT22;3755;59.316;18.092;2023-07-29T00:46:52;13.50;99.90
7427;DHT22;3755;59.316;18.092;2023-07-29T00:49:20;13.50;99.90
7427;DHT22;3755;59.316;18.092;2023-07-29T00:51:47;13.50;99.90
7427;DHT22;3755;59.316;18.092;2023-07-29T00:54:15;13.50;99.90
7427;DHT22;3755;59.316;18.092;2023-07-29T00:56:42;13.50;99.90
7427;DHT22;3755;59.316;18.092;2023-07-29T00:59:09;13.50;99.90
7427;DHT22;3755;59.316;18.092;2023-07-29T01:01:37;13.50;99.90
7427;DHT22;3755;59.316;18.092;2023-07-29T01:04:05;13.60;99.90
7427;DHT22;3755;59.316;18.092;2023-07-29T01:06:41;13.50;99.90
7427;DHT22;3755;59.316;18.092;2023-07-29T01:09:18;13.60;99.90
7427;DHT22;3755;59.316;18.092;2023-07-29T01:12:03;13.60;99.90
7427;DHT22;3755;59.316;18.092;2023-07-29T01:14:38;13.60;99.90
7427;DHT22;3755;59.316;18.092;2023-07-29T01:17:09;13.60;99.90
7427;DHT22;3755;59.316;18.092;2023-07-29T01:19:55;13.70;99.90
7427;DHT22;3755;59.316;18.092;2023-07-29T01:22:26;13.70;99.90
7427;DHT22;3755;59.316;18.092;2023-07-29T01:24:57;13.70;99.90
7427;DHT22;3755;59.316;18.092;2023-07-29T01:27:24;13.70;99.90
7427;DHT22;3755;59.316;18.092;2023-07-29T01:29:52;13.70;99.90
7427;DHT22;3755;59.316;18.092;2023-07-29T01:32:25;13.70;99.90
7427;DHT22;3755;59.316;18.092;2023-07-29T01:35:00;13.70;99.90
7427;DHT22;3755;59.316;18.092;2023-07-29T01:37:33;13.70;99.90
7427;DHT22;3755;59.316;18.092;2023-07-29T01:40:03;13.70;99.90
7427;DHT22;3755;59.316;18.092;2023-07-29T01:42:30;13.70;99.90
7427;DHT22;3755;59.316;18.092;2023-07-29T01:44:58;13.60;99.90
7427;DHT22;3755;59.316;18.092;2023-07-29T01:47:26;13.60;99.90
7427;DHT22;3755;59.316;18.092;2023-07-29T01:49:53;13.60;99.90
7427;DHT22;3755;59.316;18.092;2023-07-29T01:52:20;13.60;99.90
7427;DHT22;3755;59.316;18.092;2023-07-29T01:54:48;13.60;99.90
7427;DHT22;3755;59.316;18.092;2023-07-29T01:57:17;13.60;99.90
7427;DHT22;3755;59.316;18.092;2023-07-29T01:59:44;13.60;99.90
7427;DHT22;3755;59.316;18.092;2023-07-29T02:02:11;13.60;99.90
7427;DHT22;3755;59.316;18.092;2023-07-29T02:04:38;13.60;99.90
7427;DHT22;3755;59.316;18.092;2023-07-29T02:07:05;13.60;99.90
7427;DHT22;3755;59.316;18.092;2023-07-29T02:09:32;13.60;99.90
7427;DHT22;3755;59.316;18.092;2023-07-29T02:11:59;13.60;99.90
7427;DHT22;3755;59.316;18.092;2023-07-29T02:14:28;13.60;99.90
7427;DHT22;3755;59.316;18.092;2023-07-29T02:16:55;13.60;99.90
7427;DHT22;3755;59.316;18.092;2023-07-29T02:19:22;13.60;99.90
7427;DHT22;3755;59.316;18.092;2023-07-29T02:21:49;13.60;99.90
7427;DHT22;3755;59.316;18.092;2023-07-29T02:24:16;13.60;99.90
7427;DHT22;3755;59.316;18.092;2023-07-29T02:26:43;13.60;99.90
7427;DHT22;3755;59.316;18.092;2023-07-29T02:29:10;13.60;99.90
7427;DHT22;3755;59.316;18.092;2023-07-29T02:31:39;13.60;99.90
7427;DHT22;3755;59.316;18.092;2023-07-29T02:34:06;13.60;99.90
7427;DHT22;3755;59.316;18.092;2023-07-29T02:36:33;13.60;99.90
7427;DHT22;3755;59.316;18.092;2023-07-29T02:39:00;13.60;99.90
7427;DHT22;3755;59.316;18.092;2023-07-29T02:41:27;13.60;99.90
7427;DHT22;3755;59.316;18.092;2023-07-29T02:43:55;13.70;99.90
7427;DHT22;3755;59.316;18.092;2023-07-29T02:46:22;13.70;99.90
7427;DHT22;3755;59.316;18.092;2023-07-29T02:48:50;13.70;99.90
7427;DHT22;3755;59.316;18.092;2023-07-29T02:51:17;13.70;99.90
7427;DHT22;3755;59.316;18.092;2023-07-29T02:53:44;13.70;99.90
7427;DHT22;3755;59.316;18.092;2023-07-29T02:56:12;13.70;99.90
7427;DHT22;3755;59.316;18.092;2023-07-29T02:58:39;13.60;99.90
7427;DHT22;3755;59.316;18.092;2023-07-29T03:01:06;13.60;99.90
7427;DHT22;3755;59.316;18.092;2023-07-29T03:03:33;13.70;99.90
7427;DHT22;3755;59.316;18.092;2023-07-29T03:06:03;13.70;99.90
7427;DHT22;3755;59.316;18.092;2023-07-29T03:08:31;13.70;99.90
7427;DHT22;3755;59.316;18.092;2023-07-29T03:10:58;13.70;99.90
7427;DHT22;3755;59.316;18.092;2023-07-29T03:13:25;13.80;99.90
7427;DHT22;3755;59.316;18.092;2023-07-29T03:15:52;13.80;99.90
7427;DHT22;3755;59.316;18.092;2023-07-29T03:18:20;13.90;99.90
7427;DHT22;3755;59.316;18.092;2023-07-29T03:20:49;14.00;99.90
7427;DHT22;3755;59.316;18.092;2023-07-29T03:23:18;14.00;99.90
7427;DHT22;3755;59.316;18.092;2023-07-29T03:25:48;14.20;99.90
7427;DHT22;3755;59.316;18.092;2023-07-29T03:28:17;14.20;99.90
7427;DHT22;3755;59.316;18.092;2023-07-29T03:30:44;14.30;99.90
7427;DHT22;3755;59.316;18.092;2023-07-29T03:33:11;14.40;99.90
7427;DHT22;3755;59.316;18.092;2023-07-29T03:35:38;14.60;99.90
7427;DHT22;3755;59.316;18.092;2023-07-29T03:38:05;14.70;99.90
7427;DHT22;3755;59.316;18.092;2023-07-29T03:40:33;14.80;99.90
7427;DHT22;3755;59.316;18.092;2023-07-29T03:43:00;15.00;99.90
7427;DHT22;3755;59.316;18.092;2023-07-29T03:45:28;15.10;99.90
7427;DHT22;3755;59.316;18.092;2023-07-29T03:47:55;15.30;99.90
7427;DHT22;3755;59.316;18.092;2023-07-29T03:50:22;15.40;99.90
7427;DHT22;3755;59.316;18.092;2023-07-29T03:52:50;15.60;99.90
7427;DHT22;3755;59.316;18.092;2023-07-29T03:55:17;15.70;99.90
7427;DHT22;3755;59.316;18.092;2023-07-29T03:57:45;16.00;99.90
7427;DHT22;3755;59.316;18.092;2023-07-29T04:00:13;16.30;99.90
7427;DHT22;3755;59.316;18.092;2023-07-29T04:02:40;16.50;99.90
7427;DHT22;3755;59.316;18.092;2023-07-29T04:05:08;16.50;99.90
7427;DHT22;3755;59.316;18.092;2023-07-29T04:07:35;16.40;99.90
7427;DHT22;3755;59.316;18.092;2023-07-29T04:10:03;16.40;99.90
7427;DHT22;3755;59.316;18.092;2023-07-29T04:12:31;16.90;99.90
7427;DHT22;3755;59.316;18.092;2023-07-29T04:14:59;17.30;99.90
7427;DHT22;3755;59.316;18.092;2023-07-29T04:17:27;17.20;99.90
7427;DHT22;3755;59.316;18.092;2023-07-29T04:19:54;17.30;99.90
7427;DHT22;3755;59.316;18.092;2023-07-29T04:22:21;17.10;99.90
7427;DHT22;3755;59.316;18.092;2023-07-29T04:24:48;17.50;99.90
7427;DHT22;3755;59.316;18.092;2023-07-29T04:27:15;17.70;99.90
7427;DHT22;3755;59.316;18.092;2023-07-29T04:29:42;17.70;99.90
7427;DHT22;3755;59.316;18.092;2023-07-29T04:32:11;17.90;99.90
7427;DHT22;3755;59.316;18.092;2023-07-29T04:34:38;17.80;99.90
7427;DHT22;3755;59.316;18.092;2023-07-29T04:37:05;17.90;99.90
7427;DHT22;3755;59.316;18.092;2023-07-29T04:39:32;17.90;99.90
7427;DHT22;3755;59.316;18.092;2023-07-29T04:42:00;17.90;99.90
7427;DHT22;3755;59.316;18.092;2023-07-29T04:44:27;18.10;99.90
7427;DHT22;3755;59.316;18.092;2023-07-29T04:46:54;18.20;99.90
7427;DHT22;3755;59.316;18.092;2023-07-29T04:49:23;18.10;99.90
7427;DHT22;3755;59.316;18.092;2023-07-29T04:51:50;18.10;99.90
7427;DHT22;3755;59.316;18.092;2023-07-29T04:54:17;18.10;99.90
7427;DHT22;3755;59.316;18.092;2023-07-29T04:56:46;18.10;99.90
7427;DHT22;3755;59.316;18.092;2023-07-29T04:59:13;17.70;99.90
7427;DHT22;3755;59.316;18.092;2023-07-29T05:01:40;18.00;99.90
7427;DHT22;3755;59.316;18.092;2023-07-29T05:04:08;18.00;99.90
7427;DHT22;3755;59.316;18.092;2023-07-29T05:06:37;18.00;99.90
7427;DHT22;3755;59.316;18.092;2023-07-29T05:09:14;17.90;99.90
7427;DHT22;3755;59.316;18.092;2023-07-29T05:11:41;17.80;99.90
7427;DHT22;3755;59.316;18.092;2023-07-29T05:14:09;17.80;99.90
7427;DHT22;3755;59.316;18.092;2023-07-29T05:16:36;18.10;99.90
7427;DHT22;3755;59.316;18.092;2023-07-29T05:19:03;18.10;99.90
7427;DHT22;3755;59.316;18.092;2023-07-29T05:21:30;18.10;99.90
7427;DHT22;3755;59.316;18.092;2023-07-29T05:23:59;17.80;99.90
7427;DHT22;3755;59.316;18.092;2023-07-29T05:26:26;17.20;99.90
7427;DHT22;3755;59.316;18.092;2023-07-29T05:28:54;17.00;99.90
7427;DHT22;3755;59.316;18.092;2023-07-29T05:31:22;17.00;99.90
7427;DHT22;3755;59.316;18.092;2023-07-29T05:33:49;16.80;99.90
7427;DHT22;3755;59.316;18.092;2023-07-29T05:36:16;16.70;99.90
7427;DHT22;3755;59.316;18.092;2023-07-29T05:38:43;16.70;99.90
7427;DHT22;3755;59.316;18.092;2023-07-29T05:41:12;16.60;99.90
7427;DHT22;3755;59.316;18.092;2023-07-29T05:43:39;16.60;99.90
7427;DHT22;3755;59.316;18.092;2023-07-29T05:46:08;16.50;99.90
7427;DHT22;3755;59.316;18.092;2023-07-29T05:48:36;16.60;99.90
7427;DHT22;3755;59.316;18.092;2023-07-29T05:51:03;16.60;99.90
7427;DHT22;3755;59.316;18.092;2023-07-29T05:53:31;16.70;99.90
7427;DHT22;3755;59.316;18.092;2023-07-29T05:55:58;16.70;99.90
7427;DHT22;3755;59.316;18.092;2023-07-29T05:58:26;16.70;99.90
7427;DHT22;3755;59.316;18.092;2023-07-29T06:00:54;16.80;99.90
7427;DHT22;3755;59.316;18.092;2023-07-29T06:03:21;16.80;99.90
7427;DHT22;3755;59.316;18.092;2023-07-29T06:05:49;16.80;99.90
7427;DHT22;3755;59.316;18.092;2023-07-29T06:08:16;16.80;99.90
7427;DHT22;3755;59.316;18.092;2023-07-29T06:10:43;16.70;99.90
7427;DHT22;3755;59.316;18.092;2023-07-29T06:13:10;16.80;99.90
7427;DHT22;3755;59.316;18.092;2023-07-29T06:15:39;16.90;99.90
7427;DHT22;3755;59.316;18.092;2023-07-29T06:18:06;17.00;99.90
7427;DHT22;3755;59.316;18.092;2023-07-29T06:20:33;17.10;99.90
7427;DHT22;3755;59.316;18.092;2023-07-29T06:23:00;17.20;99.90
7427;DHT22;3755;59.316;18.092;2023-07-29T06:25:27;17.20;99.90
7427;DHT22;3755;59.316;18.092;2023-07-29T06:27:54;17.20;99.90
7427;DHT22;3755;59.316;18.092;2023-07-29T06:30:22;17.20;99.90
7427;DHT22;3755;59.316;18.092;2023-07-29T06:32:51;17.30;99.90
7427;DHT22;3755;59.316;18.092;2023-07-29T06:35:18;17.30;99.90
7427;DHT22;3755;59.316;18.092;2023-07-29T06:37:45;17.40;99.90
7427;DHT22;3755;59.316;18.092;2023-07-29T06:40:12;17.50;99.90
7427;DHT22;3755;59.316;18.092;2023-07-29T06:42:39;17.60;99.90
7427;DHT22;3755;59.316;18.092;2023-07-29T06:45:07;17.60;99.90
7427;DHT22;3755;59.316;18.092;2023-07-29T06:47:35;17.80;99.90
7427;DHT22;3755;59.316;18.092;2023-07-29T06:50:05;17.70;99.90
7427;DHT22;3755;59.316;18.092;2023-07-29T06:52:32;17.70;99.90
7427;DHT22;3755;59.316;18.092;2023-07-29T06:54:59;17.70;99.90
7427;DHT22;3755;59.316;18.092;2023-07-29T06:57:26;17.70;99.90
7427;DHT22;3755;59.316;18.092;2023-07-29T06:59:53;17.80;99.90
7427;DHT22;3755;59.316;18.092;2023-07-29T07:02:21;17.90;99.90
7427;DHT22;3755;59.316;18.092;2023-07-29T07:04:48;17.90;99.90
7427;DHT22;3755;59.316;18.092;2023-07-29T07:07:16;18.00;99.90
7427;DHT22;3755;59.316;18.092;2023-07-29T07:09:44;18.10;99.90
7427;DHT22;3755;59.316;18.092;2023-07-29T07:12:11;18.20;99.90
7427;DHT22;3755;59.316;18.092;2023-07-29T07:14:38;18.20;99.90
7427;DHT22;3755;59.316;18.092;2023-07-29T07:17:05;18.10;99.90
7427;DHT22;3755;59.316;18.092;2023-07-29T07:19:32;18.10;99.90
7427;DHT22;3755;59.316;18.092;2023-07-29T07:22:00;18.00;99.90
7427;DHT22;3755;59.316;18.092;2023-07-29T07:24:28;18.10;99.90
7427;DHT22;3755;59.316;18.092;2023-07-29T07:26:55;18.20;99.90
7427;DHT22;3755;59.316;18.092;2023-07-29T07:29:22;18.30;99.90
7427;DHT22;3755;59.316;18.092;2023-07-29T07:31:51;18.40;99.90
7427;DHT22;3755;59.316;18.092;2023-07-29T07:34:19;18.40;99.90
7427;DHT22;3755;59.316;18.092;2023-07-29T07:36:46;18.60;99.90
7427;DHT22;3755;59.316;18.092;2023-07-29T07:39:14;18.70;99.90
7427;DHT22;3755;59.316;18.092;2023-07-29T07:41:42;18.70;99.90
7427;DHT22;3755;59.316;18.092;2023-07-29T07:44:09;18.80;99.90
7427;DHT22;3755;59.316;18.092;2023-07-29T07:46:41;18.70;99.90
7427;DHT22;3755;59.316;18.092;2023-07-29T07:49:08;18.80;99.90
7427;DHT22;3755;59.316;18.092;2023-07-29T07:51:35;18.80;99.90
7427;DHT22;3755;59.316;18.092;2023-07-29T07:54:02;18.70;99.90
7427;DHT22;3755;59.316;18.092;2023-07-29T07:56:29;18.80;99.90
7427;DHT22;3755;59.316;18.092;2023-07-29T07:58:58;18.90;99.90
7427;DHT22;3755;59.316;18.092;2023-07-29T08:01:25;18.90;99.90
7427;DHT22;3755;59.316;18.092;2023-07-29T08:03:52;18.90;99.90
7427;DHT22;3755;59.316;18.092;2023-07-29T08:06:19;18.90;99.90
7427;DHT22;3755;59.316;18.092;2023-07-29T08:08:47;18.90;99.90
7427;DHT22;3755;59.316;18.092;2023-07-29T08:11:14;19.10;99.90
7427;DHT22;3755;59.316;18.092;2023-07-29T08:13:41;19.30;99.90
7427;DHT22;3755;59.316;18.092;2023-07-29T08:16:09;19.50;99.90
7427;DHT22;3755;59.316;18.092;2023-07-29T08:18:37;19.60;99.90
7427;DHT22;3755;59.316;18.092;2023-07-29T08:21:04;19.80;99.90
7427;DHT22;3755;59.316;18.092;2023-07-29T08:23:32;19.80;99.90
7427;DHT22;3755;59.316;18.092;2023-07-29T08:26:01;19.80;99.90
7427;DHT22;3755;59.316;18.092;2023-07-29T08:28:28;19.90;99.90
7427;DHT22;3755;59.316;18.092;2023-07-29T08:30:56;19.70;99.90
7427;DHT22;3755;59.316;18.092;2023-07-29T08:33:25;19.60;99.90
7427;DHT22;3755;59.316;18.092;2023-07-29T08:35:52;19.70;99.90
7427;DHT22;3755;59.316;18.092;2023-07-29T08:38:20;19.90;99.90
7427;DHT22;3755;59.316;18.092;2023-07-29T08:40:52;20.00;99.90
7427;DHT22;3755;59.316;18.092;2023-07-29T08:43:25;20.20;99.90
7427;DHT22;3755;59.316;18.092;2023-07-29T08:45:55;20.30;99.90
7427;DHT22;3755;59.316;18.092;2023-07-29T08:48:32;20.30;99.90
7427;DHT22;3755;59.316;18.092;2023-07-29T08:51:00;20.30;99.90
7427;DHT22;3755;59.316;18.092;2023-07-29T08:53:28;20.10;99.90
7427;DHT22;3755;59.316;18.092;2023-07-29T08:55:55;20.20;99.90
7427;DHT22;3755;59.316;18.092;2023-07-29T08:58:23;20.30;99.90
7427;DHT22;3755;59.316;18.092;2023-07-29T09:00:51;20.40;99.90
7427;DHT22;3755;59.316;18.092;2023-07-29T09:03:19;20.40;99.90
7427;DHT22;3755;59.316;18.092;2023-07-29T09:05:48;20.30;99.90
7427;DHT22;3755;59.316;18.092;2023-07-29T09:08:15;20.50;99.90
7427;DHT22;3755;59.316;18.092;2023-07-29T09:10:43;20.60;99.90
7427;DHT22;3755;59.316;18.092;2023-07-29T09:13:11;20.70;99.90
7427;DHT22;3755;59.316;18.092;2023-07-29T09:15:38;21.00;99.90
7427;DHT22;3755;59.316;18.092;2023-07-29T09:18:09;21.10;99.90
7427;DHT22;3755;59.316;18.092;2023-07-29T09:20:37;21.20;99.90
7427;DHT22;3755;59.316;18.092;2023-07-29T09:23:08;21.40;99.90
7427;DHT22;3755;59.316;18.092;2023-07-29T09:25:37;21.50;99.90
7427;DHT22;3755;59.316;18.092;2023-07-29T09:28:08;21.30;99.90
7427;DHT22;3755;59.316;18.092;2023-07-29T09:30:37;21.20;99.90
7427;DHT22;3755;59.316;18.092;2023-07-29T09:33:04;21.20;99.90
7427;DHT22;3755;59.316;18.092;2023-07-29T09:35:33;21.30;99.90
7427;DHT22;3755;59.316;18.092;2023-07-29T09:38:00;21.20;99.90
7427;DHT22;3755;59.316;18.092;2023-07-29T09:40:34;21.20;99.90
7427;DHT22;3755;59.316;18.092;2023-07-29T09:43:03;21.20;99.90
7427;DHT22;3755;59.316;18.092;2023-07-29T09:45:33;21.40;99.90
7427;DHT22;3755;59.316;18.092;2023-07-29T09:48:02;21.30;99.90
7427;DHT22;3755;59.316;18.092;2023-07-29T09:50:31;21.40;99.90
7427;DHT22;3755;59.316;18.092;2023-07-29T09:52:58;21.70;99.90
7427;DHT22;3755;59.316;18.092;2023-07-29T09:55:25;21.70;99.90
7427;DHT22;3755;59.316;18.092;2023-07-29T09:57:56;21.80;99.90
7427;DHT22;3755;59.316;18.092;2023-07-29T10:00:26;21.60;99.90
7427;DHT22;3755;59.316;18.092;2023-07-29T10:02:54;21.60;99.90
7427;DHT22;3755;59.316;18.092;2023-07-29T10:05:22;21.80;99.90
7427;DHT22;3755;59.316;18.092;2023-07-29T10:07:50;21.70;99.90
7427;DHT22;3755;59.316;18.092;2023-07-29T10:10:18;21.80;99.90
7427;DHT22;3755;59.316;18.092;2023-07-29T10:12:47;21.80;99.90
7427;DHT22;3755;59.316;18.092;2023-07-29T10:15:15;21.80;99.90
7427;DHT22;3755;59.316;18.092;2023-07-29T10:17:42;21.70;99.90
7427;DHT22;3755;59.316;18.092;2023-07-29T10:20:11;21.70;99.90
7427;DHT22;3755;59.316;18.092;2023-07-29T10:22:39;21.90;99.90
7427;DHT22;3755;59.316;18.092;2023-07-29T10:25:08;21.90;99.90
7427;DHT22;3755;59.316;18.092;2023-07-29T10:27:42;22.10;99.90
7427;DHT22;3755;59.316;18.092;2023-07-29T10:30:11;22.30;99.90
7427;DHT22;3755;59.316;18.092;2023-07-29T10:32:42;22.40;99.90
7427;DHT22;3755;59.316;18.092;2023-07-29T10:35:11;22.50;99.90
7427;DHT22;3755;59.316;18.092;2023-07-29T10:37:39;22.50;99.90
7427;DHT22;3755;59.316;18.092;2023-07-29T10:40:08;22.50;99.90
7427;DHT22;3755;59.316;18.092;2023-07-29T10:42:36;22.60;99.90
7427;DHT22;3755;59.316;18.092;2023-07-29T10:45:18;22.60;99.90
7427;DHT22;3755;59.316;18.092;2023-07-29T10:47:47;22.70;99.90
7427;DHT22;3755;59.316;18.092;2023-07-29T10:50:19;22.70;99.80
7427;DHT22;3755;59.316;18.092;2023-07-29T10:52:50;22.60;99.80
7427;DHT22;3755;59.316;18.092;2023-07-29T10:55:29;22.60;99.60
7427;DHT22;3755;59.316;18.092;2023-07-29T10:58:07;22.70;99.20
7427;DHT22;3755;59.316;18.092;2023-07-29T11:00:35;22.60;99.40
7427;DHT22;3755;59.316;18.092;2023-07-29T11:03:06;22.70;99.30
7427;DHT22;3755;59.316;18.092;2023-07-29T11:05:47;22.70;98.80
7427;DHT22;3755;59.316;18.092;2023-07-29T11:08:28;22.80;98.80
7427;DHT22;3755;59.316;18.092;2023-07-29T11:11:04;22.80;98.80
7427;DHT22;3755;59.316;18.092;2023-07-29T11:13:32;22.90;98.80
7427;DHT22;3755;59.316;18.092;2023-07-29T11:16:00;22.80;99.00
7427;DHT22;3755;59.316;18.092;2023-07-29T11:18:30;22.80;99.00
7427;DHT22;3755;59.316;18.092;2023-07-29T11:20:58;22.90;98.20
7427;DHT22;3755;59.316;18.092;2023-07-29T11:23:30;23.00;97.50
7427;DHT22;3755;59.316;18.092;2023-07-29T11:25:57;22.80;97.00
7427;DHT22;3755;59.316;18.092;2023-07-29T11:28:25;22.90;96.90
7427;DHT22;3755;59.316;18.092;2023-07-29T11:30:54;23.00;97.00
7427;DHT22;3755;59.316;18.092;2023-07-29T11:33:23;23.10;96.60
7427;DHT22;3755;59.316;18.092;2023-07-29T11:35:52;23.10;96.60
7427;DHT22;3755;59.316;18.092;2023-07-29T11:38:20;23.10;96.10
7427;DHT22;3755;59.316;18.092;2023-07-29T11:40:55;23.00;96.10
7427;DHT22;3755;59.316;18.092;2023-07-29T11:43:22;23.10;96.40
7427;DHT22;3755;59.316;18.092;2023-07-29T11:45:50;23.20;96.00
7427;DHT22;3755;59.316;18.092;2023-07-29T11:48:18;23.40;95.90
7427;DHT22;3755;59.316;18.092;2023-07-29T11:50:45;23.50;95.20
7427;DHT22;3755;59.316;18.092;2023-07-29T11:53:14;23.40;95.10
7427;DHT22;3755;59.316;18.092;2023-07-29T11:55:42;23.40;94.90
7427;DHT22;3755;59.316;18.092;2023-07-29T11:58:10;23.50;95.00
7427;DHT22;3755;59.316;18.092;2023-07-29T12:00:38;23.60;95.20
7427;DHT22;3755;59.316;18.092;2023-07-29T12:03:06;23.60;95.10
7427;DHT22;3755;59.316;18.092;2023-07-29T12:05:35;23.30;95.40
7427;DHT22;3755;59.316;18.092;2023-07-29T12:08:03;23.30;95.40
7427;DHT22;3755;59.316;18.092;2023-07-29T12:10:32;23.40;94.60
7427;DHT22;3755;59.316;18.092;2023-07-29T12:12:59;23.40;94.50
7427;DHT22;3755;59.316;18.092;2023-07-29T12:15:29;23.60;94.30
7427;DHT22;3755;59.316;18.092;2023-07-29T12:17:58;23.60;94.40
7427;DHT22;3755;59.316;18.092;2023-07-29T12:20:29;23.60;94.60
7427;DHT22;3755;59.316;18.092;2023-07-29T12:22:58;23.50;94.70
7427;DHT22;3755;59.316;18.092;2023-07-29T12:25:28;23.60;94.70
7427;DHT22;3755;59.316;18.092;2023-07-29T12:28:02;23.60;94.70
7427;DHT22;3755;59.316;18.092;2023-07-29T12:30:29;23.40;93.60
7427;DHT22;3755;59.316;18.092;2023-07-29T12:32:56;23.50;93.80
7427;DHT22;3755;59.316;18.092;2023-07-29T12:35:24;23.60;93.70
7427;DHT22;3755;59.316;18.092;2023-07-29T12:38:00;23.80;93.50
7427;DHT22;3755;59.316;18.092;2023-07-29T12:40:27;23.50;93.70
7427;DHT22;3755;59.316;18.092;2023-07-29T12:42:56;23.50;94.40
7427;DHT22;3755;59.316;18.092;2023-07-29T12:45:24;23.50;94.50
7427;DHT22;3755;59.316;18.092;2023-07-29T12:47:52;23.50;94.30
7427;DHT22;3755;59.316;18.092;2023-07-29T12:50:20;23.70;93.50
7427;DHT22;3755;59.316;18.092;2023-07-29T12:52:47;24.00;93.50
7427;DHT22;3755;59.316;18.092;2023-07-29T12:55:15;24.00;93.20
7427;DHT22;3755;59.316;18.092;2023-07-29T12:57:42;24.00;93.00
7427;DHT22;3755;59.316;18.092;2023-07-29T13:00:12;24.00;92.80
7427;DHT22;3755;59.316;18.092;2023-07-29T13:02:39;23.80;93.20
7427;DHT22;3755;59.316;18.092;2023-07-29T13:05:10;23.90;93.40
7427;DHT22;3755;59.316;18.092;2023-07-29T13:07:38;23.50;93.40
7427;DHT22;3755;59.316;18.092;2023-07-29T13:10:06;23.60;93.40
7427;DHT22;3755;59.316;18.092;2023-07-29T13:12:33;23.60;92.90
7427;DHT22;3755;59.316;18.092;2023-07-29T13:15:00;23.60;92.50
7427;DHT22;3755;59.316;18.092;2023-07-29T13:17:29;23.70;92.20
7427;DHT22;3755;59.316;18.092;2023-07-29T13:19:56;23.70;92.00
7427;DHT22;3755;59.316;18.092;2023-07-29T13:22:23;23.60;92.20
7427;DHT22;3755;59.316;18.092;2023-07-29T13:24:52;23.60;92.50
7427;DHT22;3755;59.316;18.092;2023-07-29T13:27:19;23.80;92.60
7427;DHT22;3755;59.316;18.092;2023-07-29T13:29:46;23.90;92.60
7427;DHT22;3755;59.316;18.092;2023-07-29T13:32:13;23.90;92.50
7427;DHT22;3755;59.316;18.092;2023-07-29T13:34:43;23.80;92.30
7427;DHT22;3755;59.316;18.092;2023-07-29T13:37:10;23.70;92.50
7427;DHT22;3755;59.316;18.092;2023-07-29T13:39:37;23.40;93.00
7427;DHT22;3755;59.316;18.092;2023-07-29T13:42:05;23.40;93.10
7427;DHT22;3755;59.316;18.092;2023-07-29T13:44:32;23.40;93.40
7427;DHT22;3755;59.316;18.092;2023-07-29T13:47:00;23.60;93.60
7427;DHT22;3755;59.316;18.092;2023-07-29T13:49:27;24.00;93.40
7427;DHT22;3755;59.316;18.092;2023-07-29T13:51:55;23.90;92.90
7427;DHT22;3755;59.316;18.092;2023-07-29T13:54:23;23.90;93.20
7427;DHT22;3755;59.316;18.092;2023-07-29T13:56:50;23.80;93.10
7427;DHT22;3755;59.316;18.092;2023-07-29T13:59:17;23.60;92.90
7427;DHT22;3755;59.316;18.092;2023-07-29T14:01:44;23.50;93.00
7427;DHT22;3755;59.316;18.092;2023-07-29T14:04:11;23.50;93.00
7427;DHT22;3755;59.316;18.092;2023-07-29T14:06:38;23.50;93.20
7427;DHT22;3755;59.316;18.092;2023-07-29T14:09:07;23.60;93.20
7427;DHT22;3755;59.316;18.092;2023-07-29T14:11:34;23.70;93.20
7427;DHT22;3755;59.316;18.092;2023-07-29T14:14:02;23.90;93.00
7427;DHT22;3755;59.316;18.092;2023-07-29T14:16:29;23.90;92.90
7427;DHT22;3755;59.316;18.092;2023-07-29T14:18:56;23.90;92.60
7427;DHT22;3755;59.316;18.092;2023-07-29T14:21:23;23.80;92.90
7427;DHT22;3755;59.316;18.092;2023-07-29T14:23:51;23.80;93.30
7427;DHT22;3755;59.316;18.092;2023-07-29T14:26:19;23.80;92.80
7427;DHT22;3755;59.316;18.092;2023-07-29T14:28:47;24.00;93.10
7427;DHT22;3755;59.316;18.092;2023-07-29T14:31:14;24.10;92.70
7427;DHT22;3755;59.316;18.092;2023-07-29T14:33:42;23.90;92.70
7427;DHT22;3755;59.316;18.092;2023-07-29T14:36:10;23.80;92.60
7427;DHT22;3755;59.316;18.092;2023-07-29T14:38:37;23.60;92.80
7427;DHT22;3755;59.316;18.092;2023-07-29T14:41:04;23.60;92.60
7427;DHT22;3755;59.316;18.092;2023-07-29T14:43:33;23.60;92.70
7427;DHT22;3755;59.316;18.092;2023-07-29T14:46:00;23.70;92.50
7427;DHT22;3755;59.316;18.092;2023-07-29T14:48:27;23.60;92.70
7427;DHT22;3755;59.316;18.092;2023-07-29T14:50:54;23.70;92.60
7427;DHT22;3755;59.316;18.092;2023-07-29T14:53:22;23.80;92.30
7427;DHT22;3755;59.316;18.092;2023-07-29T14:55:49;23.80;92.40
7427;DHT22;3755;59.316;18.092;2023-07-29T14:58:16;24.00;92.50
7427;DHT22;3755;59.316;18.092;2023-07-29T15:00:45;24.10;92.10
7427;DHT22;3755;59.316;18.092;2023-07-29T15:03:12;24.20;91.90
7427;DHT22;3755;59.316;18.092;2023-07-29T15:05:39;24.20;91.70
7427;DHT22;3755;59.316;18.092;2023-07-29T15:08:07;24.00;91.40
7427;DHT22;3755;59.316;18.092;2023-07-29T15:10:34;23.80;91.70
7427;DHT22;3755;59.316;18.092;2023-07-29T15:13:02;23.90;91.40
7427;DHT22;3755;59.316;18.092;2023-07-29T15:15:29;23.90;91.50
7427;DHT22;3755;59.316;18.092;2023-07-29T15:17:58;23.90;91.30
7427;DHT22;3755;59.316;18.092;2023-07-29T15:20:25;24.00;91.50
7427;DHT22;3755;59.316;18.092;2023-07-29T15:22:52;24.10;91.50
7427;DHT22;3755;59.316;18.092;2023-07-29T15:25:19;24.00;91.40
7427;DHT22;3755;59.316;18.092;2023-07-29T15:27:46;23.90;91.60
7427;DHT22;3755;59.316;18.092;2023-07-29T15:30:14;24.00;91.70
7427;DHT22;3755;59.316;18.092;2023-07-29T15:32:41;24.00;91.80
7427;DHT22;3755;59.316;18.092;2023-07-29T15:35:10;24.00;92.00
7427;DHT22;3755;59.316;18.092;2023-07-29T15:37:37;24.00;92.10
7427;DHT22;3755;59.316;18.092;2023-07-29T15:40:05;24.00;92.10
7427;DHT22;3755;59.316;18.092;2023-07-29T15:42:33;23.90;92.10
7427;DHT22;3755;59.316;18.092;2023-07-29T15:45:00;23.90;92.30
7427;DHT22;3755;59.316;18.092;2023-07-29T15:47:27;23.90;92.40
7427;DHT22;3755;59.316;18.092;2023-07-29T15:49:56;23.80;92.20